Time;durP1;ratioP1;P1;durP2;ratioP2;P2;SDS_P1;SDS_P2;PMS_P1;PMS_P2;Temp;Humidity;BMP_temperature;BMP_pressure;BME280_temperature;BME280_humidity;BME280_pressure;Samples;Min_cycle;Max_cycle;Signal;HPM_P1;HPM_P2
2023/05/25 00:01:43;;;;;;;1.63;1.52;;;15.80;58.50;;;;;;4996693;28;20065;-77
2023/05/25 00:04:09;;;;;;;2.50;1.80;;;15.70;58.50;;;;;;5030042;28;20538;-77
2023/05/25 00:06:40;;;;;;;2.45;1.67;;;15.80;58.60;;;;;;5029318;28;20045;-77
2023/05/25 00:09:06;;;;;;;4.03;2.20;;;15.70;58.60;;;;;;5014144;28;20040;-78
2023/05/25 00:11:32;;;;;;;1.73;1.42;;;15.70;58.60;;;;;;5013060;28;20037;-79
2023/05/25 00:13:58;;;;;;;2.25;1.70;;;15.70;58.60;;;;;;4996163;28;20026;-78
2023/05/25 00:16:23;;;;;;;3.92;1.75;;;15.60;58.60;;;;;;4996676;28;20030;-78
2023/05/25 00:18:49;;;;;;;2.47;1.90;;;15.60;58.60;;;;;;5014481;28;20137;-80
2023/05/25 00:21:15;;;;;;;2.88;1.73;;;15.60;58.70;;;;;;5013617;28;20041;-77
2023/05/25 00:23:41;;;;;;;3.28;2.10;;;15.60;58.70;;;;;;4996340;28;20379;-78
2023/05/25 00:26:07;;;;;;;2.60;1.63;;;15.60;58.70;;;;;;5012922;28;20069;-78
2023/05/25 00:28:33;;;;;;;2.58;1.55;;;15.60;58.70;;;;;;5029061;28;20022;-79
2023/05/25 00:30:59;;;;;;;2.63;1.77;;;15.50;58.70;;;;;;5012690;28;20048;-76
2023/05/25 00:33:25;;;;;;;3.15;1.80;;;15.50;58.70;;;;;;5012692;28;20033;-76
2023/05/25 00:35:52;;;;;;;2.05;1.52;;;15.50;58.80;;;;;;5013777;28;20121;-76
2023/05/25 00:38:19;;;;;;;2.13;1.67;;;15.50;58.80;;;;;;4996720;28;20030;-76
2023/05/25 00:40:45;;;;;;;2.05;1.73;;;15.40;58.80;;;;;;4995965;28;20370;-77
2023/05/25 00:43:12;;;;;;;2.85;1.55;;;15.40;58.90;;;;;;4995833;28;20037;-76
2023/05/25 00:45:38;;;;;;;2.67;1.85;;;15.40;58.90;;;;;;5045426;28;20053;-75
2023/05/25 00:48:05;;;;;;;3.85;1.65;;;15.40;59.00;;;;;;5012613;28;20034;-75
2023/05/25 00:50:33;;;;;;;2.63;2.10;;;15.30;58.90;;;;;;4996627;28;20052;-75
2023/05/25 00:53:00;;;;;;;3.55;1.90;;;15.30;59.00;;;;;;5012163;28;20367;-77
2023/05/25 00:55:32;;;;;;;2.17;1.60;;;15.30;59.00;;;;;;5029101;28;20057;-76
2023/05/25 00:58:02;;;;;;;3.80;2.45;;;15.30;59.10;;;;;;5019945;28;20028;-77
2023/05/25 01:00:29;;;;;;;3.15;1.75;;;15.30;59.10;;;;;;5035260;28;20069;-76
2023/05/25 01:02:58;;;;;;;2.03;1.60;;;15.20;59.10;;;;;;5020016;28;20033;-76
2023/05/25 01:05:27;;;;;;;2.75;1.65;;;15.20;59.10;;;;;;5020476;28;20135;-77
2023/05/25 01:07:57;;;;;;;3.13;1.98;;;15.20;59.10;;;;;;5002357;28;20033;-76
2023/05/25 01:10:24;;;;;;;1.92;1.50;;;15.20;59.20;;;;;;5018645;28;20053;-77
2023/05/25 01:12:54;;;;;;;3.13;1.80;;;15.20;59.20;;;;;;5019019;28;20132;-78
2023/05/25 01:15:19;;;;;;;2.75;1.80;;;15.20;59.20;;;;;;5019980;28;20061;-77
2023/05/25 01:17:52;;;;;;;2.05;1.60;;;15.20;59.20;;;;;;5018342;28;20022;-78
2023/05/25 01:20:18;;;;;;;3.65;2.13;;;15.10;59.20;;;;;;5018835;28;20042;-77
2023/05/25 01:23:22;;;;;;;3.55;1.90;;;15.10;59.30;;;;;;5002284;28;20041;-78
2023/05/25 01:25:52;;;;;;;3.08;1.80;;;15.10;59.40;;;;;;5002335;28;20033;-76
2023/05/25 01:28:26;;;;;;;2.20;1.80;;;15.10;59.40;;;;;;5035150;28;20033;-77
2023/05/25 01:30:57;;;;;;;2.53;1.90;;;15.10;59.50;;;;;;5002447;28;20076;-77
2023/05/25 01:33:25;;;;;;;3.20;1.88;;;15.00;59.40;;;;;;5035648;28;20457;-78
2023/05/25 01:35:51;;;;;;;3.13;2.10;;;15.00;59.40;;;;;;4986706;28;20034;-78
2023/05/25 01:38:17;;;;;;;1.92;1.65;;;15.00;59.50;;;;;;5018517;28;20030;-77
2023/05/25 01:40:43;;;;;;;2.40;1.70;;;15.00;59.50;;;;;;5020173;28;20061;-77
2023/05/25 01:43:09;;;;;;;2.55;1.73;;;14.90;59.50;;;;;;5018516;28;20084;-77
2023/05/25 01:45:35;;;;;;;2.20;1.80;;;14.90;59.50;;;;;;5018557;28;20038;-78
2023/05/25 01:48:18;;;;;;;2.70;1.67;;;14.90;59.50;;;;;;5001827;28;20038;-78
2023/05/25 01:50:47;;;;;;;2.92;1.90;;;14.90;59.60;;;;;;5020112;28;20061;-76
2023/05/25 01:53:28;;;;;;;3.00;2.05;;;14.90;59.60;;;;;;5001943;28;20038;-77
2023/05/25 01:56:00;;;;;;;2.80;1.80;;;14.90;59.70;;;;;;5018725;28;20164;-76
2023/05/25 01:58:37;;;;;;;2.78;1.65;;;14.80;59.60;;;;;;5051006;28;20068;-77
2023/05/25 02:01:03;;;;;;;2.72;1.85;;;14.80;59.70;;;;;;5034860;28;20041;-77
2023/05/25 02:03:29;;;;;;;2.47;1.83;;;14.80;59.60;;;;;;5018233;28;20033;-76
2023/05/25 02:05:56;;;;;;;1.70;1.52;;;14.70;59.60;;;;;;5034680;28;20032;-77
2023/05/25 02:08:22;;;;;;;3.95;2.03;;;14.70;59.70;;;;;;5031543;28;20104;-77
2023/05/25 02:10:48;;;;;;;2.38;1.92;;;14.70;59.70;;;;;;4998811;28;20120;-79
2023/05/25 02:13:14;;;;;;;3.35;1.80;;;14.70;59.80;;;;;;5016176;28;20037;-77
2023/05/25 02:15:40;;;;;;;3.47;1.73;;;14.70;59.80;;;;;;5015152;28;20397;-77
2023/05/25 02:18:07;;;;;;;3.22;1.98;;;14.70;59.80;;;;;;5048714;28;20045;-77
2023/05/25 02:20:35;;;;;;;3.08;2.10;;;14.70;59.80;;;;;;4998837;28;20033;-77
2023/05/25 02:23:01;;;;;;;4.20;2.10;;;14.60;59.80;;;;;;5033457;28;20076;-77
2023/05/25 02:25:27;;;;;;;3.22;2.00;;;14.60;59.80;;;;;;5035411;28;20391;-77
2023/05/25 02:27:53;;;;;;;3.50;2.20;;;14.60;59.80;;;;;;5051846;28;20485;-77
2023/05/25 02:30:19;;;;;;;2.63;1.85;;;14.60;59.90;;;;;;4998853;28;20033;-77
2023/05/25 02:32:45;;;;;;;3.42;2.05;;;14.60;59.90;;;;;;4999118;28;20493;-77
2023/05/25 02:35:11;;;;;;;3.10;2.10;;;14.50;59.90;;;;;;5014566;28;20066;-78
2023/05/25 02:37:38;;;;;;;3.35;2.10;;;14.60;60.00;;;;;;4998395;28;20398;-77
2023/05/25 02:40:04;;;;;;;2.75;1.80;;;14.50;59.90;;;;;;5047591;28;20546;-77
2023/05/25 02:42:30;;;;;;;2.85;2.10;;;14.50;60.00;;;;;;4998837;28;20112;-77
2023/05/25 02:44:57;;;;;;;2.78;1.98;;;14.40;59.90;;;;;;4997932;28;20042;-78
2023/05/25 02:47:23;;;;;;;2.85;1.80;;;14.50;60.00;;;;;;5014505;28;20034;-77
2023/05/25 02:49:50;;;;;;;2.53;1.73;;;14.40;60.00;;;;;;5047398;28;20117;-78
2023/05/25 02:52:15;;;;;;;2.00;1.65;;;14.50;60.10;;;;;;5046938;28;20061;-78
2023/05/25 02:54:41;;;;;;;3.53;2.08;;;14.40;60.00;;;;;;4997862;28;20040;-76
2023/05/25 02:57:09;;;;;;;3.15;2.05;;;14.40;60.10;;;;;;5047159;28;20065;-78
2023/05/25 02:59:35;;;;;;;2.40;1.80;;;14.40;60.10;;;;;;5047415;28;20135;-77
2023/05/25 03:02:02;;;;;;;3.47;2.10;;;14.40;60.10;;;;;;4998145;28;20049;-77
2023/05/25 03:04:30;;;;;;;3.88;2.25;;;14.30;60.10;;;;;;5047278;28;20457;-77
2023/05/25 03:06:56;;;;;;;3.63;2.03;;;14.30;60.80;;;;;;5031211;28;20022;-76
2023/05/25 03:09:21;;;;;;;3.53;2.00;;;14.30;60.20;;;;;;4997820;28;20080;-77
2023/05/25 03:11:49;;;;;;;2.22;1.80;;;14.30;60.20;;;;;;4998237;28;20066;-78
2023/05/25 03:14:16;;;;;;;2.92;1.98;;;14.30;60.20;;;;;;4997591;28;20435;-77
2023/05/25 03:16:49;;;;;;;2.88;1.70;;;14.30;60.20;;;;;;4999262;28;20033;-77
2023/05/25 03:19:15;;;;;;;2.67;1.75;;;14.30;60.20;;;;;;5013698;28;20041;-78
2023/05/25 03:21:40;;;;;;;2.30;1.73;;;14.20;60.20;;;;;;5013850;28;20041;-77
2023/05/25 03:24:06;;;;;;;3.75;2.10;;;14.30;60.30;;;;;;5046891;28;20030;-79
2023/05/25 03:26:32;;;;;;;2.90;2.10;;;14.20;60.30;;;;;;5015011;28;20057;-77
2023/05/25 03:28:59;;;;;;;5.13;2.30;;;14.20;60.30;;;;;;4997848;28;20029;-77
2023/05/25 03:31:26;;;;;;;4.38;2.17;;;14.20;60.30;;;;;;5046610;28;20130;-77
2023/05/25 03:33:51;;;;;;;3.25;1.90;;;14.10;60.30;;;;;;4997356;28;20509;-78
2023/05/25 03:36:21;;;;;;;2.38;1.85;;;14.10;60.40;;;;;;4997842;28;20030;-77
2023/05/25 03:38:46;;;;;;;4.00;2.03;;;14.10;60.40;;;;;;5030551;28;20038;-77
2023/05/25 03:41:12;;;;;;;3.10;2.10;;;14.10;60.40;;;;;;5014222;28;20037;-77
2023/05/25 03:43:38;;;;;;;2.97;1.92;;;14.10;60.40;;;;;;5013162;28;20030;-77
2023/05/25 03:46:05;;;;;;;3.15;1.95;;;14.00;60.40;;;;;;4981134;28;20034;-78
2023/05/25 03:48:31;;;;;;;3.25;2.10;;;14.00;60.40;;;;;;5013775;28;20064;-78
2023/05/25 03:50:57;;;;;;;3.13;2.40;;;14.00;60.40;;;;;;5013527;28;20041;-77
2023/05/25 03:53:23;;;;;;;4.05;2.05;;;14.00;60.50;;;;;;4997062;28;20073;-77
2023/05/25 03:55:50;;;;;;;2.63;1.77;;;14.00;60.50;;;;;;4996512;28;20125;-78
2023/05/25 03:58:17;;;;;;;4.13;2.08;;;14.00;60.50;;;;;;5046483;28;20462;-78
2023/05/25 04:00:43;;;;;;;3.05;1.98;;;14.00;60.60;;;;;;5045576;28;20518;-77
2023/05/25 04:03:09;;;;;;;3.05;2.20;;;13.90;60.50;;;;;;4996555;28;20034;-77
2023/05/25 04:05:35;;;;;;;2.88;1.98;;;14.00;60.60;;;;;;5013079;28;20030;-78
2023/05/25 04:08:02;;;;;;;3.75;2.20;;;13.90;60.50;;;;;;5013667;28;20451;-77
2023/05/25 04:10:28;;;;;;;3.13;1.85;;;13.90;60.60;;;;;;5012510;28;20545;-79
2023/05/25 04:12:56;;;;;;;4.55;2.10;;;13.90;60.60;;;;;;4996620;28;20038;-78
2023/05/25 04:15:22;;;;;;;3.22;2.10;;;13.90;61.30;;;;;;4997367;28;20040;-77
2023/05/25 04:18:08;;;;;;;3.08;1.80;;;13.90;60.70;;;;;;5026132;28;20042;-77
2023/05/25 04:20:34;;;;;;;2.95;2.10;;;13.90;60.70;;;;;;5012721;28;20037;-76
2023/05/25 04:23:00;;;;;;;3.65;1.90;;;13.90;60.70;;;;;;5045581;28;20038;-76
2023/05/25 04:25:26;;;;;;;2.45;1.70;;;13.80;60.70;;;;;;5013324;28;20041;-77
2023/05/25 04:27:52;;;;;;;3.00;1.80;;;13.80;60.70;;;;;;4995971;28;20127;-77
2023/05/25 04:30:34;;;;;;;3.80;2.40;;;13.80;61.40;;;;;;4997844;28;20121;-77
2023/05/25 04:33:18;;;;;;;;;;;13.80;60.80;;;;;;4999137;28;20065;-79
2023/05/25 04:36:02;;;;;;;2.78;2.03;;;13.80;60.50;;;;;;4998596;28;20004;-76
2023/05/25 04:38:29;;;;;;;3.65;2.28;;;13.80;60.50;;;;;;5012592;28;20041;-78
2023/05/25 04:40:57;;;;;;;2.67;1.80;;;13.80;60.70;;;;;;5045257;28;20072;-78
2023/05/25 04:43:24;;;;;;;4.03;2.00;;;13.80;60.70;;;;;;5012662;28;20038;-76
2023/05/25 04:45:54;;;;;;;3.65;2.10;;;13.80;60.80;;;;;;5013298;28;20168;-78
2023/05/25 04:48:20;;;;;;;4.03;2.20;;;13.80;60.90;;;;;;5028508;28;20068;-77
2023/05/25 04:50:47;;;;;;;3.85;1.90;;;13.80;60.80;;;;;;5012363;28;20042;-76
2023/05/25 04:53:14;;;;;;;3.25;2.15;;;13.80;60.80;;;;;;5045500;28;20156;-77
2023/05/25 04:55:39;;;;;;;2.90;1.75;;;13.80;60.80;;;;;;4995837;28;20125;-77
2023/05/25 04:58:06;;;;;;;3.03;2.20;;;13.80;60.90;;;;;;5012589;28;20038;-77
2023/05/25 05:00:33;;;;;;;3.58;2.10;;;13.80;60.90;;;;;;5044977;28;20058;-77
2023/05/25 05:02:59;;;;;;;3.53;2.20;;;13.80;61.00;;;;;;4996390;28;20034;-78
2023/05/25 05:05:25;;;;;;;3.35;2.20;;;13.70;61.00;;;;;;5028681;28;20478;-77
2023/05/25 05:07:53;;;;;;;3.30;2.10;;;13.80;61.00;;;;;;5046513;28;20037;-78
2023/05/25 05:10:19;;;;;;;3.90;2.53;;;13.70;61.00;;;;;;5016058;28;20395;-78
2023/05/25 05:12:50;;;;;;;3.47;2.17;;;13.80;61.00;;;;;;5000215;28;20037;-77
2023/05/25 05:15:15;;;;;;;2.42;2.00;;;13.80;61.10;;;;;;5046265;28;20030;-77
2023/05/25 05:17:45;;;;;;;3.67;2.53;;;13.80;61.10;;;;;;5045536;28;20141;-77
2023/05/25 05:20:12;;;;;;;3.83;2.40;;;13.80;61.20;;;;;;4997111;28;20042;-77
2023/05/25 05:22:38;;;;;;;3.63;2.45;;;13.80;61.20;;;;;;5045004;28;20040;-78
2023/05/25 05:25:06;;;;;;;4.32;2.33;;;13.80;61.20;;;;;;5045938;28;20065;-77
2023/05/25 05:27:31;;;;;;;3.25;2.25;;;13.80;61.20;;;;;;5044869;28;20038;-77
2023/05/25 05:30:02;;;;;;;3.78;2.13;;;13.80;61.20;;;;;;5012256;28;20060;-77
2023/05/25 05:32:28;;;;;;;4.15;2.20;;;13.80;61.20;;;;;;4995811;28;20130;-77
2023/05/25 05:34:55;;;;;;;3.22;2.00;;;13.80;61.20;;;;;;5045006;28;20546;-77
2023/05/25 05:37:47;;;;;;;3.83;2.50;;;13.80;61.20;;;;;;5012388;28;20030;-76
2023/05/25 05:40:13;;;;;;;3.85;2.22;;;13.80;61.20;;;;;;5045512;28;20436;-77
2023/05/25 05:42:41;;;;;;;4.13;2.65;;;13.80;61.20;;;;;;5029724;28;20172;-77
2023/05/25 05:45:08;;;;;;;4.18;2.40;;;13.80;61.30;;;;;;5015991;28;20030;-77
2023/05/25 05:47:34;;;;;;;3.80;2.47;;;13.80;61.40;;;;;;4998871;28;20069;-77
2023/05/25 05:50:00;;;;;;;4.35;2.40;;;13.80;61.40;;;;;;5015152;28;20042;-77
2023/05/25 05:52:26;;;;;;;4.57;2.22;;;13.80;61.40;;;;;;4999164;28;20048;-77
2023/05/25 05:54:52;;;;;;;3.95;2.28;;;13.80;61.40;;;;;;5015324;28;20030;-77
2023/05/25 05:57:17;;;;;;;4.28;2.80;;;13.80;61.40;;;;;;5015539;28;20049;-77
2023/05/25 05:59:43;;;;;;;3.85;2.42;;;13.80;61.40;;;;;;5048277;28;20054;-78
2023/05/25 06:02:09;;;;;;;3.55;2.33;;;13.80;61.40;;;;;;4999091;28;20140;-77
2023/05/25 06:04:37;;;;;;;2.80;2.10;;;13.90;61.50;;;;;;5015811;28;20092;-78
2023/05/25 06:07:03;;;;;;;3.28;2.20;;;13.90;61.50;;;;;;5031578;28;20471;-77
2023/05/25 06:09:28;;;;;;;3.03;2.08;;;13.90;61.50;;;;;;5048218;28;20030;-78
2023/05/25 06:11:58;;;;;;;3.42;2.20;;;13.90;61.60;;;;;;5048756;28;20088;-76
2023/05/25 06:14:24;;;;;;;3.83;2.10;;;13.90;62.20;;;;;;5016062;28;20037;-79
2023/05/25 06:16:50;;;;;;;4.68;2.40;;;13.90;61.60;;;;;;4999212;28;20026;-77
2023/05/25 06:19:16;;;;;;;3.55;2.25;;;14.00;61.60;;;;;;4983185;28;20026;-79
2023/05/25 06:21:42;;;;;;;4.15;2.67;;;14.00;61.60;;;;;;4999255;28;20088;-78
2023/05/25 06:24:07;;;;;;;3.17;2.20;;;14.00;61.60;;;;;;5015194;28;20038;-76
2023/05/25 06:26:33;;;;;;;3.75;2.40;;;14.00;61.70;;;;;;5048446;28;20452;-79
2023/05/25 06:28:59;;;;;;;4.95;2.45;;;14.00;61.70;;;;;;5015099;28;20406;-80
2023/05/25 06:31:25;;;;;;;3.55;2.38;;;14.00;61.70;;;;;;4997991;28;20041;-78
2023/05/25 06:33:51;;;;;;;5.70;2.55;;;14.00;61.70;;;;;;5014697;28;20038;-77
2023/05/25 06:36:17;;;;;;;4.18;2.25;;;14.10;61.80;;;;;;5014499;28;20474;-77
2023/05/25 06:38:43;;;;;;;4.82;2.90;;;14.10;61.70;;;;;;5047689;28;20124;-76
2023/05/25 06:41:13;;;;;;;3.55;2.55;;;14.10;61.70;;;;;;4998518;28;20121;-76
2023/05/25 06:43:41;;;;;;;5.35;2.33;;;14.10;61.70;;;;;;4999473;28;20497;-77
2023/05/25 06:46:16;;;;;;;3.70;2.22;;;14.10;61.70;;;;;;5031197;28;20026;-76
2023/05/25 06:48:42;;;;;;;2.42;2.13;;;14.10;61.70;;;;;;5014701;28;20180;-76
2023/05/25 06:51:08;;;;;;;3.15;2.17;;;14.20;61.80;;;;;;5031701;28;20507;-77
2023/05/25 06:53:34;;;;;;;4.05;2.25;;;14.20;61.70;;;;;;5017686;28;20455;-80
2023/05/25 06:55:59;;;;;;;4.13;2.50;;;14.20;61.80;;;;;;5000213;28;20069;-78
2023/05/25 06:58:26;;;;;;;4.32;2.40;;;14.20;61.80;;;;;;5031635;28;20497;-79
2023/05/25 07:00:51;;;;;;;4.25;2.60;;;14.20;61.90;;;;;;5015333;28;20100;-79
2023/05/25 07:03:17;;;;;;;4.28;2.35;;;14.30;62.00;;;;;;5015202;28;20124;-80
2023/05/25 07:05:43;;;;;;;5.28;2.72;;;14.30;62.10;;;;;;4998198;28;20058;-82
2023/05/25 07:08:09;;;;;;;3.60;2.30;;;14.30;62.10;;;;;;5013553;28;20552;-80
2023/05/25 07:10:35;;;;;;;4.55;2.67;;;14.40;62.10;;;;;;4981338;28;20046;-79
2023/05/25 07:13:00;;;;;;;4.22;2.45;;;14.40;62.10;;;;;;4997825;28;20125;-80
2023/05/25 07:15:26;;;;;;;3.95;2.35;;;14.40;62.00;;;;;;5030068;28;20034;-81
2023/05/25 07:17:52;;;;;;;2.90;2.00;;;14.50;62.10;;;;;;4997294;28;20050;-80
2023/05/25 07:20:18;;;;;;;4.65;2.55;;;14.50;62.00;;;;;;5015166;28;20038;-79
2023/05/25 07:22:46;;;;;;;4.65;2.30;;;14.60;62.00;;;;;;4997908;28;20022;-79
2023/05/25 07:25:12;;;;;;;4.40;2.25;;;14.60;62.00;;;;;;4997691;28;20426;-79
2023/05/25 07:27:38;;;;;;;4.53;2.22;;;14.60;62.00;;;;;;5013761;28;20030;-78
2023/05/25 07:30:05;;;;;;;4.28;2.38;;;14.70;62.00;;;;;;5013727;28;20034;-77
2023/05/25 07:32:31;;;;;;;3.83;2.35;;;14.70;62.00;;;;;;5015098;28;20057;-78
2023/05/25 07:34:57;;;;;;;3.30;1.85;;;14.70;61.90;;;;;;4997256;28;20073;-77
2023/05/25 07:37:22;;;;;;;3.67;2.40;;;14.80;62.00;;;;;;5015001;28;20386;-77
2023/05/25 07:39:49;;;;;;;3.92;2.38;;;14.90;62.00;;;;;;5013570;28;20161;-77
2023/05/25 07:42:19;;;;;;;2.95;2.00;;;14.90;61.90;;;;;;5014661;28;20054;-77
2023/05/25 07:44:48;;;;;;;3.28;2.00;;;14.90;61.90;;;;;;5013875;28;20061;-77
2023/05/25 07:47:14;;;;;;;3.95;2.10;;;15.00;61.90;;;;;;4996945;28;20033;-77
2023/05/25 07:49:40;;;;;;;2.67;2.08;;;15.00;61.80;;;;;;5013756;28;20034;-77
2023/05/25 07:52:06;;;;;;;4.50;2.20;;;15.10;61.90;;;;;;5046354;28;20030;-77
2023/05/25 07:54:32;;;;;;;4.07;2.17;;;15.20;61.90;;;;;;4999379;28;20083;-78
2023/05/25 07:56:58;;;;;;;3.75;1.88;;;15.20;61.90;;;;;;5016321;28;20069;-78
2023/05/25 07:59:25;;;;;;;5.07;2.22;;;15.20;61.80;;;;;;5015299;28;20081;-77
2023/05/25 08:01:51;;;;;;;2.33;2.00;;;15.30;61.80;;;;;;4996618;28;20497;-77
2023/05/25 08:04:16;;;;;;;3.42;2.08;;;15.30;61.80;;;;;;5014771;28;20188;-77
2023/05/25 08:06:43;;;;;;;3.35;2.10;;;15.40;61.80;;;;;;5012560;28;20483;-77
2023/05/25 08:09:09;;;;;;;4.53;2.30;;;15.50;61.80;;;;;;5013327;28;20033;-78
2023/05/25 08:11:35;;;;;;;3.92;2.10;;;15.50;61.80;;;;;;4996488;28;20463;-77
2023/05/25 08:14:00;;;;;;;3.15;2.10;;;15.50;61.70;;;;;;5013283;28;20471;-77
2023/05/25 08:16:26;;;;;;;4.05;2.25;;;15.60;61.70;;;;;;4996981;28;20472;-79
2023/05/25 08:18:52;;;;;;;3.13;1.92;;;15.60;61.60;;;;;;5012452;28;20437;-78
2023/05/25 08:21:18;;;;;;;3.95;2.00;;;15.70;61.60;;;;;;4996454;28;20030;-76
2023/05/25 08:23:43;;;;;;;3.25;1.98;;;15.70;61.50;;;;;;4996383;28;20454;-77
2023/05/25 08:26:10;;;;;;;2.88;1.90;;;15.80;61.50;;;;;;4997055;28;20129;-77
2023/05/25 08:28:36;;;;;;;3.38;1.95;;;15.90;61.40;;;;;;5014141;28;20026;-77
2023/05/25 08:31:03;;;;;;;4.57;2.08;;;15.90;61.40;;;;;;5045838;28;20470;-77
2023/05/25 08:33:30;;;;;;;3.58;2.00;;;16.00;61.30;;;;;;5029090;28;20053;-77
2023/05/25 08:35:57;;;;;;;3.83;2.08;;;16.00;61.20;;;;;;5028771;28;20109;-76
2023/05/25 08:38:24;;;;;;;3.28;1.88;;;16.10;61.20;;;;;;5013197;28;20107;-76
2023/05/25 08:41:02;;;;;;;3.22;1.75;;;16.20;61.20;;;;;;5013442;28;20029;-77
2023/05/25 08:43:28;;;;;;;3.25;1.73;;;16.20;61.20;;;;;;5013489;28;20026;-76
2023/05/25 08:45:58;;;;;;;3.63;2.08;;;16.30;61.10;;;;;;5014042;28;20026;-77
2023/05/25 08:48:27;;;;;;;3.35;1.80;;;16.30;61.10;;;;;;5029120;28;20030;-77
2023/05/25 08:50:54;;;;;;;3.67;1.83;;;16.40;61.00;;;;;;5028499;28;20038;-77
2023/05/25 08:53:21;;;;;;;4.72;2.20;;;16.40;61.00;;;;;;5013050;28;20034;-77
2023/05/25 08:55:49;;;;;;;3.33;2.10;;;16.50;61.00;;;;;;4996272;28;20030;-76
2023/05/25 08:58:24;;;;;;;3.08;1.95;;;16.50;60.90;;;;;;5013253;28;20058;-76
2023/05/25 09:00:53;;;;;;;;;;;16.60;61.00;;;;;;5029097;28;20144;-77
2023/05/25 09:03:20;;;;;;;3.47;1.77;;;16.60;60.70;;;;;;5028633;28;19909;-77
2023/05/25 09:05:46;;;;;;;3.08;2.00;;;16.70;60.60;;;;;;5028183;28;20057;-77
2023/05/25 09:08:13;;;;;;;3.78;2.05;;;16.70;60.60;;;;;;5012549;28;20061;-77
2023/05/25 09:10:39;;;;;;;3.20;2.00;;;16.80;60.70;;;;;;5012279;28;20116;-77
2023/05/25 09:13:06;;;;;;;3.40;1.83;;;16.80;60.70;;;;;;5028497;28;20037;-77
2023/05/25 09:15:32;;;;;;;4.55;2.00;;;16.90;60.80;;;;;;5045306;28;20034;-78
2023/05/25 09:17:58;;;;;;;3.55;2.22;;;16.90;60.80;;;;;;5015519;28;20064;-78
2023/05/25 09:20:30;;;;;;;4.43;2.17;;;17.00;60.90;;;;;;5017046;28;20061;-78
2023/05/25 09:22:59;;;;;;;3.67;1.92;;;17.00;60.80;;;;;;5018523;28;20038;-78
2023/05/25 09:25:27;;;;;;;3.95;2.10;;;17.10;60.80;;;;;;5000420;28;20080;-78
2023/05/25 09:27:55;;;;;;;3.53;2.03;;;17.10;60.80;;;;;;5016096;28;20080;-77
2023/05/25 09:30:21;;;;;;;5.00;2.15;;;17.20;60.90;;;;;;5032367;28;20117;-78
2023/05/25 09:32:46;;;;;;;3.58;1.98;;;17.20;60.80;;;;;;5048713;28;20064;-79
2023/05/25 09:35:14;;;;;;;3.28;2.10;;;17.30;60.80;;;;;;5015948;28;20030;-77
2023/05/25 09:37:43;;;;;;;4.50;2.38;;;17.40;60.70;;;;;;4999520;28;20029;-78
2023/05/25 09:40:10;;;;;;;4.03;2.10;;;17.40;60.60;;;;;;5016595;28;20037;-77
2023/05/25 09:42:36;;;;;;;4.70;2.25;;;17.50;60.50;;;;;;5048921;28;20518;-78
2023/05/25 09:45:03;;;;;;;3.10;2.00;;;17.50;60.40;;;;;;5017091;28;20124;-78
2023/05/25 09:47:29;;;;;;;4.03;2.00;;;17.60;60.40;;;;;;5000040;28;20073;-78
2023/05/25 09:49:55;;;;;;;3.55;1.85;;;17.60;60.30;;;;;;5015768;28;20549;-76
2023/05/25 09:52:22;;;;;;;3.47;1.88;;;17.70;60.30;;;;;;5015766;28;20034;-76
2023/05/25 09:54:49;;;;;;;4.82;2.03;;;17.70;60.20;;;;;;5016805;28;20085;-76
2023/05/25 09:57:18;;;;;;;3.42;2.15;;;17.70;60.90;;;;;;5017106;28;20117;-76
2023/05/25 09:59:44;;;;;;;4.45;2.20;;;17.80;60.20;;;;;;5031494;28;20050;-76
2023/05/25 10:02:11;;;;;;;2.97;1.92;;;17.80;60.00;;;;;;5031849;28;20026;-76
2023/05/25 10:04:37;;;;;;;3.95;2.05;;;17.90;60.00;;;;;;5016541;28;20048;-76
2023/05/25 10:07:04;;;;;;;3.80;2.28;;;17.90;59.90;;;;;;5015627;28;20033;-76
2023/05/25 10:09:30;;;;;;;2.88;1.92;;;18.00;59.90;;;;;;5048207;28;20030;-76
2023/05/25 10:11:58;;;;;;;3.20;1.90;;;18.00;59.80;;;;;;5016279;28;20045;-76
2023/05/25 10:14:28;;;;;;;3.72;1.95;;;18.00;59.80;;;;;;5015852;28;20456;-75
2023/05/25 10:16:56;;;;;;;2.97;1.88;;;18.10;59.80;;;;;;5015449;28;20040;-79
2023/05/25 10:19:44;;;;;;;3.03;1.80;;;18.20;59.80;;;;;;4998930;28;20026;-77
2023/05/25 10:22:14;;;;;;;4.22;2.10;;;18.20;59.70;;;;;;5031302;28;20076;-77
2023/05/25 10:25:06;;;;;;;4.72;2.20;;;18.30;59.50;;;;;;4998939;28;20049;-76
2023/05/25 10:27:39;;;;;;;3.70;1.75;;;18.40;59.50;;;;;;5014630;28;20034;-77
2023/05/25 10:30:07;;;;;;;3.53;2.03;;;18.50;59.30;;;;;;5030296;28;20057;-76
2023/05/25 10:32:35;;;;;;;2.75;1.83;;;18.50;59.20;;;;;;4998584;28;20045;-77
2023/05/25 10:35:03;;;;;;;3.65;2.00;;;18.60;59.20;;;;;;5015648;28;20026;-78
2023/05/25 10:37:30;;;;;;;3.13;1.90;;;18.70;59.20;;;;;;4998760;28;20076;-76
2023/05/25 10:39:57;;;;;;;3.53;1.75;;;18.80;59.10;;;;;;5016527;28;20036;-76
2023/05/25 10:42:22;;;;;;;3.20;1.85;;;18.80;59.00;;;;;;5019929;28;20072;-77
2023/05/25 10:44:48;;;;;;;2.80;1.80;;;18.90;59.00;;;;;;5003340;28;20034;-79
2023/05/25 10:47:15;;;;;;;1.92;1.60;;;18.90;58.90;;;;;;5003511;28;20030;-78
2023/05/25 10:49:57;;;;;;;4.00;2.08;;;19.00;58.90;;;;;;5021205;28;20112;-82
2023/05/25 10:52:28;;;;;;;3.45;2.00;;;19.00;58.90;;;;;;5033543;28;20053;-78
2023/05/25 10:55:00;;;;;;;2.85;1.75;;;19.10;58.80;;;;;;5031477;28;20140;-77
2023/05/25 10:57:27;;;;;;;2.17;1.88;;;19.20;58.70;;;;;;5014634;28;20061;-78
2023/05/25 11:00:05;;;;;;;3.13;1.92;;;19.20;58.60;;;;;;5015848;28;20116;-76
2023/05/25 11:02:47;;;;;;;2.05;1.60;;;19.30;58.70;;;;;;5015596;28;20030;-77
2023/05/25 11:05:26;;;;;;;3.67;2.00;;;19.30;58.60;;;;;;5014433;28;20030;-77
2023/05/25 11:07:59;;;;;;;2.67;1.70;;;19.40;58.60;;;;;;4998063;28;20026;-77
2023/05/25 11:10:47;;;;;;;3.67;2.03;;;19.40;58.50;;;;;;5030993;28;20065;-78
2023/05/25 11:13:42;;;;;;;2.92;1.65;;;19.40;58.60;;;;;;4998172;28;20030;-78
2023/05/25 11:16:19;;;;;;;2.90;1.85;;;19.50;58.60;;;;;;5015836;28;20041;-78
2023/05/25 11:18:57;;;;;;;4.60;1.98;;;19.50;58.50;;;;;;4997855;28;20467;-78
2023/05/25 11:21:31;;;;;;;2.60;1.70;;;19.60;58.70;;;;;;5014757;28;20034;-78
2023/05/25 11:23:58;;;;;;;3.28;1.73;;;19.60;58.60;;;;;;5015531;28;20106;-78
2023/05/25 11:26:32;;;;;;;3.22;1.75;;;19.70;58.70;;;;;;4998047;28;20371;-78
2023/05/25 11:29:00;;;;;;;3.00;1.75;;;19.70;58.60;;;;;;4998220;28;20415;-78
2023/05/25 11:31:31;;;;;;;2.55;1.60;;;19.80;58.60;;;;;;5014742;28;20041;-78
2023/05/25 11:34:03;;;;;;;3.25;1.90;;;19.80;58.50;;;;;;5029904;28;20026;-78
2023/05/25 11:36:32;;;;;;;2.65;1.60;;;19.90;58.50;;;;;;5014418;28;20037;-79
2023/05/25 11:39:03;;;;;;;3.25;1.70;;;19.90;58.40;;;;;;5030052;28;20383;-79
2023/05/25 11:41:30;;;;;;;3.10;1.92;;;19.90;58.40;;;;;;5046574;28;20034;-78
2023/05/25 11:44:03;;;;;;;2.72;1.58;;;19.90;58.40;;;;;;5014637;28;20037;-78
2023/05/25 11:46:31;;;;;;;3.08;1.90;;;20.00;58.40;;;;;;5013211;28;20104;-78
2023/05/25 11:48:58;;;;;;;3.13;1.77;;;20.00;58.40;;;;;;4998112;28;20090;-79
2023/05/25 11:51:27;;;;;;;4.78;1.80;;;20.00;58.30;;;;;;5029527;28;20471;-79
2023/05/25 11:53:53;;;;;;;3.88;1.77;;;20.10;58.40;;;;;;5029996;28;20135;-78
2023/05/25 11:56:21;;;;;;;3.22;1.67;;;20.10;58.30;;;;;;5013532;28;20030;-79
2023/05/25 11:58:49;;;;;;;2.45;1.65;;;20.20;58.30;;;;;;5014958;28;20045;-78
2023/05/25 12:01:23;;;;;;;2.70;1.73;;;20.20;58.20;;;;;;4997633;28;20372;-79
2023/05/25 12:03:54;;;;;;;2.58;1.60;;;20.30;58.20;;;;;;5014955;28;20038;-78
2023/05/25 12:06:32;;;;;;;2.17;1.55;;;20.30;58.20;;;;;;5014440;28;20459;-78
2023/05/25 12:09:00;;;;;;;2.70;1.70;;;20.30;58.10;;;;;;4998284;28;20103;-78
2023/05/25 12:11:35;;;;;;;2.70;1.70;;;20.30;58.10;;;;;;5029430;28;20118;-78
2023/05/25 12:14:02;;;;;;;;;;;20.30;58.00;;;;;;5030090;28;20471;-78
2023/05/25 12:16:29;;;;;;;2.13;1.63;;;20.40;58.00;;;;;;5014400;28;19913;-78
2023/05/25 12:18:56;;;;;;;3.15;1.70;;;20.40;57.90;;;;;;5014054;28;20087;-78
2023/05/25 12:21:22;;;;;;;2.75;1.77;;;20.40;57.90;;;;;;4996677;28;20121;-77
2023/05/25 12:23:49;;;;;;;4.10;1.70;;;20.40;57.90;;;;;;5029452;28;20041;-77
2023/05/25 12:26:18;;;;;;;4.60;1.90;;;20.50;57.90;;;;;;4996880;28;20034;-77
2023/05/25 12:29:08;;;;;;;2.50;1.65;;;20.50;57.90;;;;;;5013992;28;20029;-78
2023/05/25 12:31:38;;;;;;;2.40;1.73;;;20.50;57.90;;;;;;4993147;28;20136;-77
2023/05/25 12:34:10;;;;;;;2.33;1.73;;;20.60;57.80;;;;;;4996470;28;20391;-78
2023/05/25 12:36:47;;;;;;;2.42;1.80;;;20.60;57.80;;;;;;5012754;28;20048;-77
2023/05/25 12:39:22;;;;;;;2.45;1.70;;;20.60;57.80;;;;;;4997533;28;20034;-77
2023/05/25 12:41:52;;;;;;;2.20;1.45;;;20.70;57.80;;;;;;5012312;28;20034;-78
2023/05/25 12:44:27;;;;;;;2.15;1.65;;;20.70;57.70;;;;;;5013197;28;20379;-78
2023/05/25 12:46:55;;;;;;;3.35;1.67;;;20.70;57.70;;;;;;5028900;28;20026;-79
2023/05/25 12:49:32;;;;;;;2.50;1.63;;;20.70;57.70;;;;;;5045033;28;20042;-78
2023/05/25 12:52:00;;;;;;;2.17;1.60;;;20.80;57.70;;;;;;5027774;28;20395;-79
2023/05/25 12:54:33;;;;;;;2.50;1.63;;;20.80;57.60;;;;;;5028816;28;20467;-78